D/T METAR WX W/DIR W/SPE G/SPE TEMP DEWP
20/06/19 15:50 EGNH 201450Z 28013KT 9999 FEW024 15/08 Q1012 W (280°) 15.0mph 15°C 8°C
20/06/19 15:20 EGNH 201420Z 28014KT 9999 FEW024 15/09 Q1012 W (280°) 16.1mph 15°C 9°C
20/06/19 14:50 EGNH 201350Z 28014KT 9999 FEW018 14/09 Q1012 W (280°) 16.1mph 14°C 9°C
20/06/19 14:20 EGNH 201320Z 28015KT 9999 FEW020 15/09 Q1012 W (280°) 17.3mph 15°C 9°C
20/06/19 13:50 EGNH 201250Z 28015KT 9999 SCT019 15/09 Q1012 W (280°) 17.3mph 15°C 9°C
20/06/19 13:20 EGNH 201220Z 28016KT 9999 SCT017 14/09 Q1011 W (280°) 18.4mph 14°C 9°C
20/06/19 12:50 EGNH 201150Z 27019KT 9999 SCT020 15/10 Q1011 W (270°) 21.9mph 15°C 10°C
20/06/19 12:20 EGNH 201120Z 27019KT 9999 SCT018 14/09 Q1011 W (270°) 21.9mph 14°C 9°C
20/06/19 11:50 EGNH 201050Z 28017KT 9999 SCT018 14/09 Q1011 W (280°) 19.6mph 14°C 9°C
20/06/19 11:20 EGNH 201020Z 27020KT 9999 SCT018 14/09 Q1011 W (270°) 23.0mph 14°C 9°C
20/06/19 10:50 EGNH 200950Z 27020KT 9999 SCT019 FEW023TCU 14/09 Q1010 W (270°) 23.0mph 14°C 9°C
20/06/19 10:20 EGNH 200920Z 29017KT 9999 SCT015 FEW020TCU 14/09 Q1010 WNW (290°) 19.6mph 14°C 9°C
20/06/19 09:50 EGNH 200850Z 29017KT 9999 SCT017 14/09 Q1010 WNW (290°) 19.6mph 14°C 9°C
20/06/19 09:20 EGNH 200820Z 29017KT 9999 SCT017 14/09 Q1010 WNW (290°) 19.6mph 14°C 9°C
20/06/19 08:50 EGNH 200750Z 29017KT 9999 SCT018 13/09 Q1009 WNW (290°) 19.6mph 13°C 9°C
20/06/19 08:20 EGNH 200720Z 29017KT 9999 FEW015 BKN022 13/09 Q1009 WNW (290°) 19.6mph 13°C 9°C
20/06/19 07:50 EGNH 200650Z 29018KT 9999 VCSH SCT015 13/09 Q1009 VCSH WNW (290°) 20.7mph 13°C 9°C
20/06/19 07:20 EGNH 200620Z 29018KT 9999 SCT030 BKN046 13/10 Q1009 WNW (290°) 20.7mph 13°C 10°C
20/06/19 06:50 EGNH 200550Z 29018KT 9999 BKN035 13/09 Q1009 WNW (290°) 20.7mph 13°C 9°C
20/06/19 06:20 EGNH 200520Z 29019KT 9999 BKN033 13/09 Q1008 WNW (290°) 21.9mph 13°C 9°C
19/06/19 20:50 EGNH 191950Z 27011KT CAVOK 15/08 Q1008 W (270°) 12.7mph 15°C 8°C
19/06/19 20:20 EGNH 191920Z 27011KT CAVOK 15/09 Q1008 W (270°) 12.7mph 15°C 9°C
19/06/19 19:50 EGNH 191850Z 27011KT CAVOK 15/09 Q1008 W (270°) 12.7mph 15°C 9°C
19/06/19 19:20 EGNH 191820Z 27011KT CAVOK 16/09 Q1008 W (270°) 12.7mph 16°C 9°C
19/06/19 18:50 EGNH 191750Z 28012KT CAVOK 16/09 Q1008 W (280°) 13.8mph 16°C 9°C
19/06/19 18:20 EGNH 191720Z 28010KT CAVOK 16/10 Q1008 W (280°) 11.5mph 16°C 10°C
19/06/19 17:50 EGNH 191650Z 28011KT CAVOK 16/11 Q1008 W (280°) 12.7mph 16°C 11°C
19/06/19 17:20 EGNH 191620Z 27012KT CAVOK 16/11 Q1008 W (270°) 13.8mph 16°C 11°C
19/06/19 16:50 EGNH 191550Z 30014KT CAVOK 16/12 Q1008 WNW (300°) 16.1mph 16°C 12°C
19/06/19 16:20 EGNH 191520Z 30014KT 9999 FEW020 17/12 Q1008 WNW (300°) 16.1mph 17°C 12°C
19/06/19 15:50 EGNH 191450Z 30014KT 9999 FEW012 16/12 Q1008 WNW (300°) 16.1mph 16°C 12°C
19/06/19 15:20 EGNH 191420Z 24010KT 9999 FEW012 16/13 Q1008 WSW (240°) 11.5mph 16°C 13°C
19/06/19 14:50 EGNH 191350Z 24010KT 9999 FEW012 16/13 Q1008 WSW (240°) 11.5mph 16°C 13°C
19/06/19 14:20 EGNH 191320Z 24010KT 9999 FEW007 16/12 Q1008 WSW (240°) 11.5mph 16°C 12°C
19/06/19 13:50 EGNH 191250Z 24010KT 9999 FEW035 16/13 Q1008 WSW (240°) 11.5mph 16°C 13°C
19/06/19 13:20 EGNH 191220Z 24010KT 9999 FEW030 16/13 Q1008 WSW (240°) 11.5mph 16°C 13°C
19/06/19 12:50 EGNH 191150Z 26012KT 9999 FEW025 16/12 Q1008 W (260°) 13.8mph 16°C 12°C
19/06/19 11:50 EGNH 191050Z 25006KT 9999 FEW020 16/12 Q1008 WSW (250°) 6.9mph 16°C 12°C
19/06/19 11:20 EGNH 191020Z 25006KT 9999 FEW010 16/11 Q1008 WSW (250°) 6.9mph 16°C 11°C
19/06/19 10:50 EGNH 190950Z 25006KT 9999 FEW011 15/12 Q1008 WSW (250°) 6.9mph 15°C 12°C
19/06/19 10:20 EGNH 190920Z 25006KT 9999 FEW040 15/12 Q1008 WSW (250°) 6.9mph 15°C 12°C
19/06/19 09:20 EGNH 190820Z 25006KT 9999 FEW045 14/11 Q1008 WSW (250°) 6.9mph 14°C 11°C
19/06/19 08:50 EGNH 190750Z 31008KT 9999 FEW045 14/11 Q1008 NW (310°) 9.2mph 14°C 11°C
19/06/19 08:20 EGNH 190720Z 31008KT 9999 FEW023 13/11 Q1008 NW (310°) 9.2mph 13°C 11°C
19/06/19 07:50 EGNH 190650Z 31008KT 9999 FEW038 13/11 Q1008 NW (310°) 9.2mph 13°C 11°C
19/06/19 07:20 EGNH 190620Z 31008KT 9999 FEW035 12/11 Q1008 NW (310°) 9.2mph 12°C 11°C
19/06/19 06:50 EGNH 190550Z 31008KT 9999 -SHRA FEW035 12/10 Q1009 -SHRA NW (310°) 9.2mph 12°C 10°C
19/06/19 06:20 EGNH 190520Z 31008KT 9999 -SHRA FEW020 SCT035 12/10 Q1009 -SHRA NW (310°) 9.2mph 12°C 10°C